Startpagina
METAR-TAF:

METAR-TAF

Vliegvelden :

Internationale Luchthaven Chiang Rai

Chiang Rai, Thailand

breedte: 19-57-08N, lengte: 099-52-59E, hoogte: 390 m

Actueel weer

Dit bericht is 1 uur en het 2 minuten geleden gemaakt, om 11:00 UTC
Wind 6 kt uit het zuidzuidoosten
Temperatuur 33°C
Vochtigheid 56%
Druk 1002 hPa
Zicht 10 km of meer
Verspreide wolken op 4500 ft

METAR: VTCT 161100Z 16006KT 9999 SCT045 33/23 Q1002 NOSIG

Tijdstip: 19:02 (12:02 UTC)

Verwachting

Dit bericht is 7 uur en het 2 minuten geleden gemaakt, om 05:00 UTC
Verwachting geldig van 16 om 06 UTC tot 17 om 12 UTC
Wind 5 kt uit het zuiden
Zicht 10 km of meer
Verspreide wolken op 2500 ft

TAF: VTCT 160500Z 1606/1712 18005KT 9999 SCT025

Waarnemingen en weersverwachtingen van meer dan 4000 vliegvelden (METAR en TAF).

De beschikbare stations zijn de gele en rode punten op de kaart.

Ga met uw muis naar het station om de naam te zien.

Klik dan om waarnemingen en weersverwachtingen te zien.

kaart wijzigen: klik op de groene knoppen met een zwart kruis om in te zoomen, op de groene knop met een streepje om uit te zoomen of op de groene pijlen voor aangrenzende kaarten.


METAR-TAF: